^^
Meteo Knjazevac Station Historical Data
Daily Summary for April 24, 2021 Units:  English    Metric   Both
Daily Weekly Monthly Yearly Custom
  High: Low: Average:
Temperature: 72.2 °F 65.3 °F 68.4 °F
Dew Point: 67.9 °F 63.8 °F 65.8 °F
Humidity: 95% 86% 92%
Wind Speed: 3mph 0mph 1.4mph
Wind Gust: 8mph - -
Wind- - West
Pressure: 30.13 in 30.12 in -
Precipitation: 0.00 in    
Historical Graphs
 
 
Tabular Data for April 24, 2021
Time Temperature Dew Point Pressure Wind Wind Speed Wind Gust Humidity Rainfall Rate (Hourly) solar Conditions
00:00 72.2 °F 67.8 °F 30.12 in WNW 2 mph 3 mph 86% 0.00 in 0 W/m2
00:10 72 °F 67.5 °F 30.12 in NW 2 mph 3 mph 86% 0.00 in 0 W/m2
00:20 71.6 °F 67.9 °F 30.12 in WSW 1 mph 4 mph 88% 0.00 in 0 W/m2
00:30 71.5 °F 67.7 °F 30.12 in Calm   3 mph 88% 0.00 in 0 W/m2
00:40 71.3 °F 67.6 °F 30.12 in Calm   1 mph 88% 0.00 in 0 W/m2
00:50 70.7 °F 67 °F 30.12 in WNW 1 mph 3 mph 88% 0.00 in 0 W/m2
01:00 70.2 °F 66.8 °F 30.12 in WNW 2 mph 3 mph 89% 0.00 in 0 W/m2
01:10 69.7 °F 66.3 °F 30.12 in SW 2 mph 3 mph 89% 0.00 in 0 W/m2
01:20 69 °F 65.9 °F 30.12 in West 3 mph 8 mph 90% 0.00 in 0 W/m2
01:30 68.9 °F 66.2 °F 30.13 in West 3 mph 6 mph 91% 0.00 in 0 W/m2
01:40 68.7 °F 66 °F 30.13 in Calm   4 mph 91% 0.00 in 0 W/m2
01:50 68.5 °F 65.8 °F 30.13 in WNW 2 mph 3 mph 91% 0.00 in 0 W/m2
02:00 68.5 °F 65.8 °F 30.13 in Calm   2 mph 91% 0.00 in 0 W/m2
02:10 68.4 °F 65.6 °F 30.13 in Calm   2 mph 91% 0.00 in 0 W/m2
02:20 68.2 °F 66.1 °F 30.13 in North 1 mph 2 mph 93% 0.00 in 0 W/m2
02:30 68 °F 65.3 °F 30.13 in WNW 1 mph 2 mph 91% 0.00 in 0 W/m2
02:40 67.8 °F 65.7 °F 30.13 in NNW 2 mph 3 mph 93% 0.00 in 0 W/m2
02:50 67.8 °F 65.7 °F 30.13 in Calm   2 mph 93% 0.00 in 0 W/m2
03:00 67.3 °F 65.2 °F 30.12 in WNW 1 mph 4 mph 93% 0.00 in 0 W/m2
03:10 66.8 °F 64.7 °F 30.12 in West 3 mph 5 mph 93% 0.00 in 0 W/m2
03:20 66.4 °F 64.6 °F 30.13 in WSW 2 mph 5 mph 94% 0.00 in 0 W/m2
03:30 66.2 °F 64.4 °F 30.12 in WSW 2 mph 3 mph 94% 0.00 in 0 W/m2
03:40 65.8 °F 64.4 °F 30.12 in Calm   4 mph 95% 0.00 in 0 W/m2
03:50 66 °F 64.5 °F 30.13 in WNW 1 mph 2 mph 95% 0.00 in 0 W/m2
04:00 66 °F 64.5 °F 30.12 in North 1 mph 3 mph 95% 0.00 in 0 W/m2
04:10 66 °F 64.5 °F 30.12 in SE 2 mph 3 mph 95% 0.00 in 0 W/m2
04:20 65.7 °F 64.2 °F 30.12 in West 3 mph 6 mph 95% 0.00 in 0 W/m2
04:30 65.3 °F 63.8 °F 30.13 in West 3 mph 6 mph 95% 0.00 in 0 W/m2
Knjazevac, Serbia
Compliments of Weather Underground - 2 mb